createdAt,value
2019-01-15T00:01:01.463Z,11.63
2019-01-15T00:03:30.633Z,23.87
2019-01-15T00:05:59.876Z,22.50
2019-01-15T00:08:29.398Z,13.27
2019-01-15T00:10:58.571Z,11.73
2019-01-15T00:13:27.810Z,13.43
2019-01-15T00:15:57.034Z,7.70
2019-01-15T00:18:26.251Z,8.53
2019-01-15T00:20:55.813Z,15.03
2019-01-15T00:23:25.086Z,8.57
2019-01-15T00:25:55.489Z,11.43
2019-01-15T00:28:24.672Z,8.10
2019-01-15T00:30:55.077Z,12.07
2019-01-15T00:33:24.571Z,14.23
2019-01-15T00:35:54.200Z,9.63
2019-01-15T00:38:23.445Z,11.70
2019-01-15T00:40:53.279Z,5.93
2019-01-15T00:43:22.796Z,9.00
2019-01-15T00:45:51.971Z,17.40
2019-01-15T00:48:21.526Z,6.37
2019-01-15T00:50:51.107Z,7.40
2019-01-15T00:53:20.258Z,13.10
2019-01-15T00:55:49.766Z,8.93
2019-01-15T00:58:20.950Z,17.87
2019-01-15T01:00:50.162Z,7.10
2019-01-15T01:03:19.317Z,22.83
2019-01-15T01:05:49.001Z,12.10
2019-01-15T01:08:18.572Z,12.97
2019-01-15T01:10:47.804Z,11.00
2019-01-15T01:13:17.075Z,12.30
2019-01-15T01:15:46.604Z,10.90
2019-01-15T01:18:15.864Z,17.23
2019-01-15T01:20:45.476Z,11.17
2019-01-15T01:23:14.962Z,10.87
2019-01-15T01:25:44.107Z,5.63
2019-01-15T01:28:13.689Z,8.23
2019-01-15T01:30:42.855Z,15.67
2019-01-15T01:33:12.048Z,8.50
2019-01-15T01:35:41.429Z,8.33
2019-01-15T01:38:10.874Z,13.43
2019-01-15T01:40:40.405Z,12.73
2019-01-15T01:43:10.030Z,13.97
2019-01-15T01:45:39.491Z,16.53
2019-01-15T01:48:09.028Z,17.07
2019-01-15T01:50:38.198Z,8.93
2019-01-15T01:53:08.058Z,13.10
2019-01-15T01:55:37.323Z,13.40
2019-01-15T01:58:06.918Z,9.90
2019-01-15T02:00:36.456Z,7.23
2019-01-15T02:03:05.790Z,11.73
2019-01-15T02:05:34.990Z,7.90
2019-01-15T02:08:04.400Z,11.60
2019-01-15T02:10:33.730Z,4.60
2019-01-15T02:13:05.202Z,12.40
2019-01-15T02:15:34.376Z,10.30
2019-01-15T02:18:03.569Z,7.23
2019-01-15T02:20:32.732Z,21.70
2019-01-15T02:23:01.964Z,30.00
2019-01-15T02:25:31.536Z,12.23
2019-01-15T02:28:00.827Z,13.70
2019-01-15T02:30:30.145Z,5.93
2019-01-15T02:32:59.660Z,19.00
2019-01-15T02:35:29.548Z,7.20
2019-01-15T02:37:59.090Z,11.80
2019-01-15T02:40:28.591Z,8.70
2019-01-15T02:42:57.901Z,10.80
2019-01-15T02:45:28.814Z,10.40
2019-01-15T02:47:58.001Z,11.73
2019-01-15T02:50:28.044Z,19.63
2019-01-15T02:52:57.220Z,13.73
2019-01-15T02:55:26.398Z,6.37
2019-01-15T02:57:56.478Z,18.33
2019-01-15T03:00:26.964Z,15.43
2019-01-15T03:02:57.993Z,11.07
2019-01-15T03:05:27.450Z,19.87
2019-01-15T03:07:56.658Z,12.50
2019-01-15T03:10:25.875Z,13.40
2019-01-15T03:12:56.823Z,10.10
2019-01-15T03:15:26.213Z,23.73
2019-01-15T03:17:55.864Z,13.63
2019-01-15T03:20:25.403Z,18.23
2019-01-15T03:22:54.993Z,25.10
2019-01-15T03:25:24.389Z,15.03
2019-01-15T03:27:53.988Z,12.73
2019-01-15T03:30:25.792Z,15.53
2019-01-15T03:32:55.164Z,9.07
2019-01-15T03:35:24.330Z,8.90
2019-01-15T03:37:53.520Z,9.53
2019-01-15T03:40:26.762Z,14.30
2019-01-15T03:43:03.181Z,9.77
2019-01-15T03:45:27.236Z,21.33
2019-01-15T03:47:56.559Z,25.53
2019-01-15T03:50:25.740Z,7.90
2019-01-15T03:52:54.903Z,16.73
2019-01-15T03:55:24.498Z,13.80
2019-01-15T03:57:54.097Z,6.90
2019-01-15T04:00:26.768Z,5.70
2019-01-15T04:02:57.204Z,4.10
2019-01-15T04:05:28.499Z,5.73
2019-01-15T04:08:01.070Z,15.87
2019-01-15T04:10:30.438Z,10.13
2019-01-15T04:12:59.693Z,14.57
2019-01-15T04:15:28.862Z,18.10
2019-01-15T04:17:58.210Z,14.63
2019-01-15T04:20:28.875Z,15.83
2019-01-15T04:22:58.096Z,11.60
2019-01-15T04:25:29.632Z,9.60
2019-01-15T04:27:59.443Z,4.37
2019-01-15T04:30:28.622Z,5.30
2019-01-15T04:32:57.820Z,10.37
2019-01-15T04:35:27.038Z,10.17
2019-01-15T04:37:56.558Z,16.27
2019-01-15T04:40:25.719Z,12.60
2019-01-15T04:42:55.258Z,15.50
2019-01-15T04:45:26.998Z,11.37
2019-01-15T04:47:56.197Z,7.03
2019-01-15T04:50:25.756Z,8.43
2019-01-15T04:52:59.659Z,5.40
2019-01-15T04:55:28.919Z,3.80
2019-01-15T04:57:58.437Z,13.17
2019-01-15T05:00:27.658Z,6.62
2019-01-15T05:02:59.851Z,8.43
2019-01-15T05:05:29.040Z,11.80
2019-01-15T05:07:58.230Z,15.07
2019-01-15T05:10:27.462Z,11.97
2019-01-15T05:12:57.639Z,10.80
2019-01-15T05:15:27.298Z,15.43
2019-01-15T05:17:56.947Z,17.17
2019-01-15T05:20:26.173Z,28.63
2019-01-15T05:22:55.852Z,17.07
2019-01-15T05:25:25.199Z,17.17
2019-01-15T05:27:54.761Z,19.20
2019-01-15T05:30:25.798Z,19.23
2019-01-15T05:32:55.415Z,20.03
2019-01-15T05:35:25.070Z,20.10
2019-01-15T05:37:54.662Z,22.20
2019-01-15T05:40:23.851Z,24.37
2019-01-15T05:42:53.628Z,24.87
2019-01-15T05:45:34.158Z,24.00
2019-01-15T05:48:22.291Z,27.73
2019-01-15T05:51:24.369Z,25.07
2019-01-15T05:53:53.997Z,25.70
2019-01-15T05:56:23.983Z,25.50
2019-01-15T05:58:53.506Z,27.10
2019-01-15T06:01:22.823Z,25.97
2019-01-15T06:03:52.104Z,28.17
2019-01-15T06:06:21.339Z,32.53
2019-01-15T06:08:50.497Z,31.20
2019-01-15T06:11:19.715Z,29.98
2019-01-15T06:13:49.296Z,28.57
2019-01-15T06:16:19.006Z,35.57
2019-01-15T06:18:48.630Z,32.27
2019-01-15T06:21:18.117Z,28.20
2019-01-15T06:23:47.335Z,36.47
2019-01-15T06:26:18.369Z,35.93
2019-01-15T06:28:47.772Z,31.03
2019-01-15T06:31:18.541Z,35.40
2019-01-15T06:33:47.715Z,38.60
2019-01-15T06:36:16.991Z,34.10
2019-01-15T06:38:46.567Z,36.97
2019-01-15T06:41:16.099Z,40.67
2019-01-15T06:43:50.021Z,36.37
2019-01-15T06:46:16.505Z,48.77
2019-01-15T06:48:45.705Z,65.83
2019-01-15T06:51:15.234Z,42.50
2019-01-15T06:53:44.768Z,47.57
2019-01-15T06:56:14.352Z,37.10
2019-01-15T06:58:43.915Z,50.67
2019-01-15T07:01:13.119Z,50.17
2019-01-15T07:03:42.353Z,53.10
2019-01-15T07:06:11.543Z,46.27
2019-01-15T07:08:41.500Z,68.60
2019-01-15T07:11:10.700Z,54.47
2019-01-15T07:13:39.944Z,63.27
2019-01-15T07:16:09.654Z,58.80
2019-01-15T07:18:38.835Z,64.77
2019-01-15T07:21:08.067Z,56.43
2019-01-15T07:23:37.687Z,68.27
2019-01-15T07:26:06.989Z,60.63
2019-01-15T07:28:36.212Z,57.97
2019-01-15T07:31:05.419Z,62.83
2019-01-15T07:33:35.009Z,65.97
2019-01-15T07:36:05.159Z,67.80
2019-01-15T07:38:34.724Z,55.83
2019-01-15T07:41:04.203Z,62.17
2019-01-15T07:43:33.581Z,62.90
2019-01-15T07:46:02.765Z,75.47
2019-01-15T07:48:31.987Z,67.07
2019-01-15T07:51:01.274Z,66.00
2019-01-15T07:53:31.407Z,66.20
2019-01-15T07:56:02.379Z,66.50
2019-01-15T07:58:31.584Z,71.70
2019-01-15T08:01:01.105Z,66.50
2019-01-15T08:03:30.403Z,76.17
2019-01-15T08:06:00.940Z,82.08
2019-01-15T08:08:30.118Z,78.93
2019-01-15T08:10:59.440Z,79.00
2019-01-15T08:13:30.448Z,82.33
2019-01-15T08:15:59.957Z,74.90
2019-01-15T08:18:29.128Z,65.43
2019-01-15T08:20:58.394Z,79.83
2019-01-15T08:23:28.296Z,77.33
2019-01-15T08:25:57.497Z,79.93
2019-01-15T08:28:27.007Z,80.20
2019-01-15T08:30:56.647Z,75.63
2019-01-15T08:33:26.006Z,88.83
2019-01-15T08:35:55.274Z,70.87
2019-01-15T08:38:24.725Z,86.93
2019-01-15T08:40:54.264Z,71.27
2019-01-15T08:43:26.289Z,81.43
2019-01-15T08:45:56.218Z,79.93
2019-01-15T08:48:27.984Z,77.97
2019-01-15T08:50:57.436Z,68.90
2019-01-15T08:53:27.190Z,80.20
2019-01-15T08:55:59.168Z,71.27
2019-01-15T08:58:28.420Z,76.83
2019-01-15T09:00:58.107Z,70.67
2019-01-15T09:03:27.306Z,70.80
2019-01-15T09:05:56.618Z,56.93
2019-01-15T09:08:26.989Z,66.80
2019-01-15T09:10:56.215Z,58.73
2019-01-15T09:13:25.399Z,74.47
2019-01-15T09:15:54.651Z,64.87
2019-01-15T09:18:24.166Z,56.47
2019-01-15T09:20:53.356Z,79.93
2019-01-15T09:23:22.657Z,53.57
2019-01-15T09:25:52.012Z,70.20
2019-01-15T09:28:21.224Z,61.67
2019-01-15T09:30:50.437Z,56.90
2019-01-15T09:33:19.949Z,56.50
2019-01-15T09:35:49.532Z,63.73
2019-01-15T09:38:19.591Z,59.63
2019-01-15T09:40:49.139Z,57.27
2019-01-15T09:43:18.330Z,49.13
2019-01-15T09:45:47.505Z,52.30
2019-01-15T09:48:20.272Z,45.30
2019-01-15T09:50:49.457Z,49.37
2019-01-15T09:53:18.669Z,55.20
2019-01-15T09:55:48.003Z,49.70
2019-01-15T09:58:17.223Z,50.30
2019-01-15T10:00:46.385Z,43.77
2019-01-15T10:03:16.721Z,37.70
2019-01-15T10:05:45.984Z,44.13
2019-01-15T10:08:15.476Z,40.13
2019-01-15T10:10:44.693Z,36.38
2019-01-15T10:13:14.017Z,34.83
2019-01-15T10:15:44.617Z,38.90
2019-01-15T10:18:14.090Z,37.57
2019-01-15T10:20:43.824Z,34.93
2019-01-15T10:23:13.413Z,39.43
2019-01-15T10:25:42.849Z,35.27
2019-01-15T10:28:12.626Z,29.77
2019-01-15T10:31:05.512Z,20.43
2019-01-15T10:33:48.446Z,25.53
2019-01-15T10:36:16.013Z,29.47
2019-01-15T10:38:45.211Z,26.70
2019-01-15T10:41:14.757Z,27.43
2019-01-15T10:43:44.484Z,27.83
2019-01-15T10:46:13.626Z,22.22
2019-01-15T10:48:44.660Z,24.73
2019-01-15T10:51:15.747Z,23.53
2019-01-15T10:53:45.261Z,21.20
2019-01-15T10:56:14.499Z,27.87
2019-01-15T10:58:43.800Z,32.77
2019-01-15T11:01:13.286Z,39.70
2019-01-15T11:03:42.829Z,19.17
2019-01-15T11:06:12.301Z,22.53
2019-01-15T11:08:41.487Z,23.00
2019-01-15T11:11:10.903Z,19.42
2019-01-15T11:13:40.063Z,31.73
2019-01-15T11:16:09.533Z,19.80
2019-01-15T11:18:39.590Z,14.70
2019-01-15T11:21:09.227Z,23.20
2019-01-15T11:23:38.727Z,17.17
2019-01-15T11:26:07.941Z,27.67
2019-01-15T11:28:37.297Z,13.93
2019-01-15T11:31:06.738Z,16.03
2019-01-15T11:33:35.897Z,22.03
2019-01-15T11:36:05.304Z,27.73
2019-01-15T11:38:36.127Z,16.17
2019-01-15T11:41:05.486Z,18.70
2019-01-15T11:43:35.218Z,25.63
2019-01-15T11:46:04.913Z,18.10
2019-01-15T11:48:34.056Z,17.83
2019-01-15T11:51:03.365Z,18.73
2019-01-15T11:53:32.593Z,19.63
2019-01-15T11:56:03.351Z,20.63
2019-01-15T11:58:32.609Z,14.60
2019-01-15T12:01:15.305Z,23.80
2019-01-15T12:03:53.832Z,18.27
2019-01-15T12:06:57.383Z,16.47
2019-01-15T12:09:51.555Z,18.80
2019-01-15T12:12:38.269Z,25.02
2019-01-15T12:15:45.458Z,18.30
2019-01-15T12:18:36.645Z,20.07
2019-01-15T12:21:24.919Z,18.00
2019-01-15T12:24:12.355Z,17.17
2019-01-15T12:26:55.013Z,18.30
2019-01-15T12:29:46.274Z,23.80
2019-01-15T12:32:30.590Z,20.00
2019-01-15T12:35:21.543Z,10.83
2019-01-15T12:38:09.706Z,19.13
2019-01-15T12:41:16.304Z,11.80
2019-01-15T12:44:03.379Z,20.67
2019-01-15T12:46:50.829Z,15.97
2019-01-15T12:49:45.534Z,21.30
2019-01-15T12:52:36.560Z,14.43
2019-01-15T12:55:41.161Z,15.20
2019-01-15T12:58:21.986Z,18.13
2019-01-15T13:01:08.904Z,18.87
2019-01-15T13:03:57.023Z,12.80
2019-01-15T13:06:45.178Z,15.97
2019-01-15T13:09:32.171Z,18.13
2019-01-15T13:12:23.064Z,21.23
2019-01-15T13:15:10.095Z,19.07
2019-01-15T13:17:56.898Z,15.53
2019-01-15T13:20:50.894Z,32.97
2019-01-15T13:23:54.455Z,15.47
2019-01-15T13:26:48.637Z,18.70
2019-01-15T13:29:36.808Z,21.33
2019-01-15T13:32:41.413Z,27.60
2019-01-15T13:35:38.014Z,18.53
2019-01-15T13:38:29.327Z,22.67
2019-01-15T13:41:16.084Z,23.20
2019-01-15T13:44:07.307Z,24.53
2019-01-15T13:46:51.302Z,15.47
2019-01-15T13:49:51.818Z,21.03
2019-01-15T13:52:36.978Z,15.13
2019-01-15T13:55:21.894Z,15.60
2019-01-15T13:58:24.704Z,21.00
2019-01-15T14:01:09.192Z,27.50
2019-01-15T14:04:00.538Z,20.80
2019-01-15T14:06:58.195Z,16.63
2019-01-15T14:09:46.511Z,16.80
2019-01-15T14:12:40.787Z,16.97
2019-01-15T14:15:49.016Z,28.13
2019-01-15T14:18:36.256Z,24.40
2019-01-15T14:21:23.396Z,12.83
2019-01-15T14:24:11.503Z,18.30
2019-01-15T14:26:52.895Z,20.93
2019-01-15T14:29:41.269Z,22.93
2019-01-15T14:32:32.476Z,20.37
2019-01-15T14:35:34.027Z,29.50
2019-01-15T14:38:27.588Z,18.23
2019-01-15T14:41:14.759Z,16.10
2019-01-15T14:43:56.420Z,19.30
2019-01-15T14:46:59.994Z,21.77
2019-01-15T14:49:57.337Z,18.73
2019-01-15T14:52:36.506Z,19.70
2019-01-15T14:55:25.053Z,22.93
2019-01-15T14:58:28.566Z,16.73
2019-01-15T15:01:15.180Z,29.23
2019-01-15T15:03:55.055Z,13.60
2019-01-15T15:06:49.343Z,28.73
2019-01-15T15:09:41.778Z,18.00
2019-01-15T15:12:39.018Z,29.73
2019-01-15T15:15:34.208Z,17.12
2019-01-15T15:18:22.321Z,22.93
2019-01-15T15:21:09.876Z,18.27
2019-01-15T15:24:07.028Z,17.43
2019-01-15T15:26:58.325Z,18.10
2019-01-15T15:29:45.400Z,22.50
2019-01-15T15:32:28.261Z,20.30
2019-01-15T15:35:24.218Z,18.93
2019-01-15T15:38:11.835Z,21.40
2019-01-15T15:41:08.470Z,19.23
2019-01-15T15:43:48.166Z,25.57
2019-01-15T15:46:41.174Z,17.37
2019-01-15T15:49:32.327Z,19.83
2019-01-15T15:52:21.104Z,20.73
2019-01-15T15:55:05.117Z,18.00
2019-01-15T15:57:58.056Z,18.90
2019-01-15T16:00:53.189Z,23.87
2019-01-15T16:03:50.918Z,19.80
2019-01-15T16:06:38.911Z,22.03
2019-01-15T16:09:27.586Z,22.40
2019-01-15T16:12:16.574Z,20.83
2019-01-15T16:15:23.454Z,23.93
2019-01-15T16:18:15.124Z,21.20
2019-01-15T16:21:19.020Z,24.40
2019-01-15T16:24:07.152Z,20.90
2019-01-15T16:26:56.430Z,25.40
2019-01-15T16:29:59.928Z,18.23
2019-01-15T16:32:58.682Z,28.27
2019-01-15T16:35:35.932Z,25.93
2019-01-15T16:38:27.330Z,20.50
2019-01-15T16:41:17.477Z,28.70
2019-01-15T16:44:12.088Z,21.10
2019-01-15T16:47:06.374Z,24.20
2019-01-15T16:49:53.915Z,26.17
2019-01-15T16:52:41.460Z,37.30
2019-01-15T16:55:21.290Z,28.17
2019-01-15T16:58:22.831Z,38.70
2019-01-15T17:01:20.051Z,33.83
2019-01-15T17:04:07.135Z,37.20
2019-01-15T17:06:54.726Z,32.27
2019-01-15T17:09:37.136Z,35.67
2019-01-15T17:12:31.778Z,43.33
2019-01-15T17:15:32.299Z,43.97
2019-01-15T17:18:19.432Z,38.77
2019-01-15T17:21:07.966Z,50.60
2019-01-15T17:23:53.087Z,45.10
2019-01-15T17:26:41.238Z,43.70
2019-01-15T17:29:35.596Z,48.70
2019-01-15T17:32:23.727Z,43.40
2019-01-15T17:35:14.673Z,38.43
2019-01-15T17:37:58.575Z,43.27
2019-01-15T17:40:54.267Z,42.78
2019-01-15T17:43:39.781Z,40.37
2019-01-15T17:46:41.719Z,61.03
2019-01-15T17:49:32.706Z,45.33
2019-01-15T17:52:26.705Z,48.23
2019-01-15T17:55:16.697Z,53.40
2019-01-15T17:58:14.209Z,45.07
2019-01-15T18:01:02.672Z,53.83
2019-01-15T18:03:53.395Z,46.43
2019-01-15T18:06:54.958Z,49.73
2019-01-15T18:09:46.557Z,59.10
2019-01-15T18:12:33.938Z,52.40
2019-01-15T18:15:21.204Z,47.23
2019-01-15T18:18:09.575Z,52.60
2019-01-15T18:20:47.046Z,62.03
2019-01-15T18:23:39.209Z,53.60
2019-01-15T18:26:26.366Z,55.60
2019-01-15T18:29:11.027Z,54.23
2019-01-15T18:32:03.358Z,54.17
2019-01-15T18:34:59.196Z,56.73
2019-01-15T18:37:43.351Z,53.27
2019-01-15T18:40:30.563Z,65.97
2019-01-15T18:43:34.489Z,58.67
2019-01-15T18:46:17.902Z,56.30
2019-01-15T18:49:05.331Z,54.90
2019-01-15T18:51:53.789Z,63.03
2019-01-15T18:55:01.692Z,53.77
2019-01-15T18:57:58.778Z,73.83
2019-01-15T19:00:53.240Z,65.07
2019-01-15T19:03:42.272Z,54.60
2019-01-15T19:06:29.861Z,63.40
2019-01-15T19:09:24.098Z,53.47
2019-01-15T19:12:18.775Z,65.83
2019-01-15T19:15:02.151Z,55.10
2019-01-15T19:17:52.049Z,58.70
2019-01-15T19:20:43.832Z,51.63
2019-01-15T19:23:30.874Z,59.63
2019-01-15T19:26:19.202Z,59.27
2019-01-15T19:29:06.275Z,79.97
2019-01-15T19:32:09.872Z,69.60
2019-01-15T19:35:03.417Z,61.07
2019-01-15T19:37:54.869Z,62.20
2019-01-15T19:40:46.107Z,54.77
2019-01-15T19:43:35.265Z,45.80
2019-01-15T19:46:26.459Z,68.63
2019-01-15T19:49:26.960Z,66.03
2019-01-15T19:52:21.268Z,61.93
2019-01-15T19:55:19.608Z,55.80
2019-01-15T19:58:06.425Z,69.67
2019-01-15T20:00:52.991Z,74.07
2019-01-15T20:03:36.133Z,64.57
2019-01-15T20:06:23.369Z,58.07
2019-01-15T20:09:10.155Z,67.13
2019-01-15T20:12:07.447Z,60.87
2019-01-15T20:15:03.679Z,57.40
2019-01-15T20:17:50.969Z,53.73
2019-01-15T20:20:42.422Z,56.63
2019-01-15T20:23:36.577Z,65.60
2019-01-15T20:26:42.914Z,55.50
2019-01-15T20:29:46.786Z,54.60
2019-01-15T20:32:28.775Z,48.13
2019-01-15T20:35:33.474Z,49.17
2019-01-15T20:38:16.317Z,50.53
2019-01-15T20:41:07.700Z,49.87
2019-01-15T20:43:54.934Z,47.63
2019-01-15T20:46:42.063Z,54.80
2019-01-15T20:49:45.338Z,49.13
2019-01-15T20:52:53.401Z,50.10
2019-01-15T20:55:31.847Z,52.13
2019-01-15T20:58:23.313Z,39.50
2019-01-15T21:01:20.674Z,49.80
2019-01-15T21:04:07.825Z,49.53
2019-01-15T21:06:48.706Z,56.20
2019-01-15T21:09:36.829Z,45.30
2019-01-15T21:12:30.858Z,33.80
2019-01-15T21:15:17.674Z,43.00
2019-01-15T21:18:23.991Z,44.63
2019-01-15T21:21:21.232Z,43.30
2019-01-15T21:24:09.354Z,45.33
2019-01-15T21:26:57.487Z,36.10
2019-01-15T21:29:47.191Z,46.20
2019-01-15T21:32:37.154Z,44.53
2019-01-15T21:35:33.055Z,52.33
2019-01-15T21:38:14.507Z,48.60
2019-01-15T21:41:01.680Z,50.80
2019-01-15T21:43:43.315Z,40.83
2019-01-15T21:46:30.402Z,48.53
2019-01-15T21:49:17.316Z,46.33
2019-01-15T21:52:11.815Z,42.30
2019-01-15T21:55:15.294Z,41.30
2019-01-15T21:58:09.697Z,43.63
2019-01-15T22:01:13.124Z,52.67
2019-01-15T22:04:07.827Z,46.10
2019-01-15T22:07:05.334Z,45.73
2019-01-15T22:09:52.297Z,44.27
2019-01-15T22:12:52.743Z,54.17
2019-01-15T22:15:41.343Z,45.83
2019-01-15T22:18:28.411Z,59.27
2019-01-15T22:21:19.430Z,52.35
2019-01-15T22:24:10.396Z,58.83
2019-01-15T22:26:58.848Z,57.13
2019-01-15T22:29:50.378Z,53.33
2019-01-15T22:32:37.121Z,55.20
2019-01-15T22:35:24.163Z,50.93
2019-01-15T22:38:12.851Z,47.07
2019-01-15T22:40:53.795Z,49.43
2019-01-15T22:43:42.197Z,50.10
2019-01-15T22:46:33.611Z,41.50
2019-01-15T22:49:37.066Z,53.00
2019-01-15T22:52:43.773Z,55.90
2019-01-15T22:55:23.145Z,55.63
2019-01-15T22:58:20.706Z,48.50
2019-01-15T23:01:07.835Z,48.00
2019-01-15T23:03:54.912Z,47.27
2019-01-15T23:06:52.175Z,51.67
2019-01-15T23:09:46.748Z,46.17
2019-01-15T23:12:33.704Z,48.53
2019-01-15T23:15:36.991Z,52.07
2019-01-15T23:18:23.795Z,51.93
2019-01-15T23:21:18.617Z,40.30
2019-01-15T23:24:03.937Z,45.00
2019-01-15T23:26:52.777Z,39.77
2019-01-15T23:29:39.769Z,44.83
2019-01-15T23:32:16.476Z,41.90
2019-01-15T23:35:03.657Z,47.97
2019-01-15T23:37:58.893Z,39.87
2019-01-15T23:40:46.302Z,56.33
2019-01-15T23:43:33.625Z,44.97
2019-01-15T23:46:17.105Z,49.67
2019-01-15T23:49:04.130Z,41.40
2019-01-15T23:51:56.112Z,39.13
2019-01-15T23:54:47.303Z,44.93
2019-01-15T23:57:35.649Z,47.67
